createdAt,value
2018-02-06T00:00:08.248Z,0.00
2018-02-06T00:01:08.664Z,0.00
2018-02-06T00:02:09.079Z,0.00
2018-02-06T00:03:09.498Z,0.00
2018-02-06T00:04:09.914Z,0.00
2018-02-06T00:05:10.330Z,0.00
2018-02-06T00:06:10.746Z,0.00
2018-02-06T00:07:11.188Z,0.00
2018-02-06T00:08:11.581Z,0.00
2018-02-06T00:09:11.997Z,0.00
2018-02-06T00:10:12.417Z,0.00
2018-02-06T00:11:12.832Z,0.00
2018-02-06T00:12:13.250Z,0.00
2018-02-06T00:13:13.665Z,0.00
2018-02-06T00:14:14.084Z,0.00
2018-02-06T00:15:14.499Z,0.00
2018-02-06T00:16:14.916Z,0.00
2018-02-06T00:17:15.346Z,0.00
2018-02-06T00:18:15.761Z,0.00
2018-02-06T00:19:16.177Z,0.00
2018-02-06T00:20:16.595Z,0.00
2018-02-06T00:21:17.014Z,0.00
2018-02-06T00:22:17.422Z,0.00
2018-02-06T00:23:17.839Z,0.00
2018-02-06T00:24:18.262Z,0.00
2018-02-06T00:25:18.676Z,0.00
2018-02-06T00:26:19.095Z,0.00
2018-02-06T00:27:19.502Z,0.00
2018-02-06T00:28:19.928Z,0.00
2018-02-06T00:29:20.336Z,0.00
2018-02-06T00:30:20.760Z,0.00
2018-02-06T00:31:21.197Z,0.00
2018-02-06T00:32:21.594Z,0.00
2018-02-06T00:33:22.008Z,0.00
2018-02-06T00:34:22.424Z,0.00
2018-02-06T00:35:22.840Z,0.00
2018-02-06T00:36:23.257Z,0.00
2018-02-06T00:37:23.672Z,0.00
2018-02-06T00:38:24.089Z,0.00
2018-02-06T00:39:24.506Z,0.00
2018-02-06T00:40:24.928Z,0.00
2018-02-06T00:41:25.340Z,0.00
2018-02-06T00:42:25.756Z,0.00
2018-02-06T00:43:26.173Z,0.00
2018-02-06T00:44:26.591Z,0.00
2018-02-06T00:45:27.008Z,0.00
2018-02-06T00:46:27.424Z,0.00
2018-02-06T00:47:27.860Z,0.00
2018-02-06T00:48:28.260Z,0.00
2018-02-06T00:49:28.676Z,0.00
2018-02-06T00:50:29.092Z,0.00
2018-02-06T00:51:29.509Z,0.00
2018-02-06T00:52:29.927Z,0.00
2018-02-06T00:53:30.347Z,0.00
2018-02-06T00:54:30.803Z,0.00
2018-02-06T00:55:31.190Z,0.00
2018-02-06T00:56:31.598Z,0.00
2018-02-06T00:57:32.020Z,0.00
2018-02-06T00:58:32.431Z,0.00
2018-02-06T00:59:32.849Z,0.00
2018-02-06T01:00:33.265Z,0.00
2018-02-06T01:01:33.681Z,0.00
2018-02-06T01:02:34.097Z,0.00
2018-02-06T01:03:34.513Z,0.00
2018-02-06T01:04:34.935Z,0.00
2018-02-06T01:05:35.347Z,0.00
2018-02-06T01:06:35.769Z,0.00
2018-02-06T01:07:36.181Z,0.00
2018-02-06T01:08:36.597Z,0.00
2018-02-06T01:09:37.015Z,0.00
2018-02-06T01:10:37.430Z,0.00
2018-02-06T01:11:37.847Z,0.00
2018-02-06T01:12:38.266Z,0.00
2018-02-06T01:13:38.681Z,0.00
2018-02-06T01:14:39.102Z,0.00
2018-02-06T01:15:39.518Z,0.00
2018-02-06T01:16:39.936Z,0.00
2018-02-06T01:17:40.355Z,0.00
2018-02-06T01:18:40.768Z,0.00
2018-02-06T01:19:41.193Z,0.00
2018-02-06T01:20:41.602Z,0.00
2018-02-06T01:21:42.021Z,0.00
2018-02-06T01:22:42.435Z,0.00
2018-02-06T01:23:42.852Z,0.00
2018-02-06T01:24:43.268Z,0.00
2018-02-06T01:25:43.692Z,0.00
2018-02-06T01:26:44.108Z,0.00
2018-02-06T01:27:44.526Z,0.00
2018-02-06T01:28:44.985Z,0.00
2018-02-06T01:29:45.357Z,0.00
2018-02-06T01:30:45.769Z,0.00
2018-02-06T01:31:46.190Z,0.00
2018-02-06T01:32:46.608Z,0.00
2018-02-06T01:33:47.024Z,0.00
2018-02-06T01:34:47.461Z,0.00
2018-02-06T01:35:47.858Z,0.00
2018-02-06T01:36:48.272Z,0.00
2018-02-06T01:37:48.689Z,0.00
2018-02-06T01:38:49.111Z,0.00
2018-02-06T01:39:49.523Z,0.00
2018-02-06T01:40:49.940Z,0.00
2018-02-06T01:41:50.362Z,0.00
2018-02-06T01:42:50.772Z,0.00
2018-02-06T01:43:51.195Z,0.00
2018-02-06T01:44:51.612Z,0.00
2018-02-06T01:45:52.027Z,0.00
2018-02-06T01:46:52.445Z,0.00
2018-02-06T01:47:52.862Z,0.00
2018-02-06T01:48:53.278Z,0.00
2018-02-06T01:49:53.694Z,0.00
2018-02-06T01:50:54.110Z,0.00
2018-02-06T01:51:54.527Z,0.00
2018-02-06T01:52:54.945Z,0.00
2018-02-06T01:53:55.360Z,0.00
2018-02-06T01:54:55.777Z,0.00
2018-02-06T01:55:56.264Z,0.00
2018-02-06T01:56:56.611Z,0.00
2018-02-06T01:57:57.027Z,0.00
2018-02-06T01:58:57.443Z,0.00
2018-02-06T01:59:57.859Z,0.00
2018-02-06T02:00:58.274Z,0.00
2018-02-06T02:01:58.691Z,0.00
2018-02-06T02:02:59.108Z,0.00
2018-02-06T02:03:59.524Z,0.00
2018-02-06T02:04:59.948Z,0.00
2018-02-06T02:06:00.358Z,0.00
2018-02-06T02:07:00.782Z,0.00
2018-02-06T02:08:01.190Z,0.00
2018-02-06T02:09:01.617Z,0.00
2018-02-06T02:10:02.023Z,0.00
2018-02-06T02:11:02.446Z,0.00
2018-02-06T02:12:02.852Z,0.00
2018-02-06T02:13:03.281Z,0.00
2018-02-06T02:14:03.689Z,0.00
2018-02-06T02:15:04.160Z,0.00
2018-02-06T02:16:04.522Z,0.00
2018-02-06T02:17:04.940Z,0.00
2018-02-06T02:18:05.362Z,0.00
2018-02-06T02:19:05.777Z,0.00
2018-02-06T02:20:06.193Z,0.00
2018-02-06T02:21:06.610Z,0.00
2018-02-06T02:22:07.027Z,0.00
2018-02-06T02:23:07.426Z,0.00
2018-02-06T02:24:07.865Z,0.00
2018-02-06T02:25:08.277Z,0.00
2018-02-06T02:26:08.682Z,0.00
2018-02-06T02:27:09.098Z,0.00
2018-02-06T02:28:09.511Z,0.00
2018-02-06T02:29:09.929Z,0.00
2018-02-06T02:30:10.344Z,0.00
2018-02-06T02:31:10.759Z,0.00
2018-02-06T02:32:11.176Z,0.00
2018-02-06T02:33:11.595Z,0.00
2018-02-06T02:34:12.007Z,0.00
2018-02-06T02:35:12.476Z,0.00
2018-02-06T02:36:12.839Z,0.00
2018-02-06T02:37:13.255Z,0.00
2018-02-06T02:38:13.674Z,0.00
2018-02-06T02:39:14.086Z,0.00
2018-02-06T02:40:14.507Z,0.00
2018-02-06T02:41:14.936Z,0.00
2018-02-06T04:39:03.593Z,0.00
2018-02-06T04:40:04.060Z,0.00
2018-02-06T04:41:04.443Z,0.00
2018-02-06T04:42:04.852Z,0.00
2018-02-06T04:43:05.271Z,0.00
2018-02-06T04:44:05.684Z,0.00
2018-02-06T04:45:06.100Z,0.00
2018-02-06T04:46:06.559Z,0.00
2018-02-06T04:47:06.935Z,0.00
2018-02-06T04:48:07.348Z,0.00
2018-02-06T04:49:07.764Z,0.00
2018-02-06T04:50:08.184Z,0.00
2018-02-06T04:51:08.595Z,0.00
2018-02-06T04:52:09.012Z,0.00
2018-02-06T04:53:09.428Z,0.00
2018-02-06T04:54:09.845Z,0.00
2018-02-06T04:55:10.261Z,0.00
2018-02-06T04:56:10.682Z,0.00
2018-02-06T04:57:11.093Z,0.00
2018-02-06T04:58:11.509Z,0.00
2018-02-06T04:59:11.925Z,0.00
2018-02-06T05:00:12.342Z,0.00
2018-02-06T05:01:12.759Z,0.00
2018-02-06T05:02:13.176Z,0.00
2018-02-06T05:03:13.591Z,0.00
2018-02-06T05:04:14.006Z,0.00
2018-02-06T05:05:14.424Z,0.00
2018-02-06T05:06:14.840Z,0.00
2018-02-06T05:07:15.256Z,0.00
2018-02-06T05:08:15.675Z,0.00
2018-02-06T05:09:16.087Z,0.00
2018-02-06T05:10:16.508Z,0.00
2018-02-06T05:11:16.919Z,0.00
2018-02-06T05:12:17.337Z,0.00
2018-02-06T05:13:17.755Z,0.00
2018-02-06T05:14:18.171Z,0.00
2018-02-06T05:15:18.594Z,0.00
2018-02-06T05:16:19.019Z,0.00
2018-02-06T05:17:19.425Z,0.00
2018-02-06T05:18:19.834Z,0.00
2018-02-06T05:19:20.252Z,0.00
2018-02-06T05:20:20.665Z,0.00
2018-02-06T05:21:21.088Z,0.00
2018-02-06T05:22:21.501Z,0.00
2018-02-06T05:23:21.920Z,0.00
2018-02-06T05:24:22.333Z,0.00
2018-02-06T05:25:22.756Z,0.00
2018-02-06T05:26:23.171Z,0.00
2018-02-06T05:27:23.584Z,0.00
2018-02-06T05:28:23.997Z,0.00
2018-02-06T05:29:24.420Z,0.00
2018-02-06T05:30:24.834Z,0.00
2018-02-06T05:31:25.246Z,0.00
2018-02-06T05:32:25.664Z,0.00
2018-02-06T05:33:26.079Z,0.00
2018-02-06T05:34:26.499Z,0.00
2018-02-06T05:35:26.913Z,0.00
2018-02-06T05:36:27.330Z,0.00
2018-02-06T05:37:27.805Z,0.00
2018-02-06T05:38:28.163Z,0.00
2018-02-06T05:39:28.582Z,0.00
2018-02-06T05:40:28.996Z,0.00
2018-02-06T05:41:29.408Z,0.00
2018-02-06T05:42:29.827Z,0.00
2018-02-06T05:43:30.240Z,0.00
2018-02-06T05:44:30.661Z,0.00
2018-02-06T05:45:31.072Z,0.00
2018-02-06T05:46:31.489Z,0.00
2018-02-06T05:47:31.904Z,0.00
2018-02-06T05:48:32.322Z,0.00
2018-02-06T05:49:32.768Z,0.00
2018-02-06T05:50:33.155Z,0.00
2018-02-06T05:51:33.572Z,0.00
2018-02-06T05:52:33.984Z,0.00
2018-02-06T05:53:34.404Z,0.00
2018-02-06T05:54:34.820Z,0.00
2018-02-06T05:55:35.236Z,0.00
2018-02-06T05:56:35.710Z,0.00
2018-02-06T05:57:36.071Z,0.00
2018-02-06T05:58:36.487Z,0.00
2018-02-06T05:59:36.904Z,0.00
2018-02-06T06:00:37.324Z,0.00
2018-02-06T06:01:37.735Z,0.00
2018-02-06T06:02:38.158Z,0.00
2018-02-06T06:03:38.567Z,0.00
2018-02-06T06:04:38.982Z,0.00
2018-02-06T06:05:39.399Z,0.00
2018-02-06T06:06:39.817Z,0.00
2018-02-06T06:07:40.230Z,0.00
2018-02-06T06:08:40.653Z,0.00
2018-02-06T06:09:41.065Z,0.00
2018-02-06T06:10:41.482Z,0.00
2018-02-06T06:11:41.890Z,0.00
2018-02-06T06:12:42.307Z,0.00
2018-02-06T06:13:42.724Z,0.00
2018-02-06T06:14:43.215Z,0.00
2018-02-06T06:15:43.554Z,0.00
2018-02-06T06:16:43.971Z,0.00
2018-02-06T06:17:44.390Z,0.00
2018-02-06T06:18:44.812Z,0.00
2018-02-06T06:19:45.220Z,0.00
2018-02-06T06:20:45.656Z,0.00
2018-02-06T06:21:46.085Z,0.00
2018-02-06T06:22:46.463Z,0.00
2018-02-06T06:23:46.881Z,0.00
2018-02-06T06:24:47.296Z,0.00
2018-02-06T06:25:47.711Z,0.00
2018-02-06T06:26:48.129Z,0.00
2018-02-06T06:27:48.740Z,0.00
2018-02-06T06:28:48.953Z,0.00
2018-02-06T06:29:49.377Z,0.00
2018-02-06T06:30:49.804Z,0.00
2018-02-06T06:31:50.211Z,0.00
2018-02-06T06:32:50.628Z,0.00
2018-02-06T06:33:51.059Z,0.00
2018-02-06T06:34:51.470Z,0.00
2018-02-06T06:35:51.876Z,5.63
2018-02-06T06:36:52.300Z,5.63
2018-02-06T06:37:52.710Z,5.63
2018-02-06T06:38:53.162Z,5.63
2018-02-06T06:39:53.558Z,5.63
2018-02-06T06:40:53.954Z,5.63
2018-02-06T06:41:54.367Z,5.63
2018-02-06T06:42:54.781Z,5.63
2018-02-06T06:43:55.197Z,5.63
2018-02-06T06:44:55.671Z,11.25
2018-02-06T06:45:56.042Z,11.25
2018-02-06T06:46:56.444Z,11.25
2018-02-06T06:47:56.862Z,11.25
2018-02-06T06:48:57.278Z,11.25
2018-02-06T06:49:57.698Z,11.25
2018-02-06T06:50:58.110Z,11.25
2018-02-06T06:51:58.525Z,16.88
2018-02-06T06:52:58.940Z,16.88
2018-02-06T06:53:59.396Z,16.88
2018-02-06T06:54:59.779Z,16.88
2018-02-06T06:56:00.186Z,16.88
2018-02-06T06:57:00.608Z,16.88
2018-02-06T06:58:01.018Z,22.50
2018-02-06T06:59:01.434Z,22.50
2018-02-06T07:00:01.851Z,22.50
2018-02-06T07:01:02.266Z,22.50
2018-02-06T07:02:02.686Z,22.50
2018-02-06T07:03:03.100Z,22.50
2018-02-06T07:04:03.512Z,28.13
2018-02-06T07:05:03.931Z,28.13
2018-02-06T07:06:04.345Z,28.13
2018-02-06T07:07:04.761Z,28.13
2018-02-06T07:08:05.172Z,28.13
2018-02-06T07:09:05.591Z,33.75
2018-02-06T07:10:06.006Z,33.75
2018-02-06T07:11:06.422Z,33.75
2018-02-06T07:12:06.837Z,33.75
2018-02-06T07:13:07.254Z,39.38
2018-02-06T07:14:07.671Z,39.38
2018-02-06T07:15:08.086Z,39.38
2018-02-06T07:16:08.510Z,39.38
2018-02-06T07:17:08.913Z,45.00
2018-02-06T07:18:09.337Z,45.00
2018-02-06T07:19:09.748Z,45.00
2018-02-06T07:20:10.163Z,45.00
2018-02-06T07:21:10.583Z,45.00
2018-02-06T07:22:10.994Z,45.00
2018-02-06T07:23:11.411Z,50.63
2018-02-06T07:24:11.828Z,50.63
2018-02-06T07:25:12.244Z,50.63
2018-02-06T07:26:12.660Z,50.63
2018-02-06T07:27:13.082Z,50.63
2018-02-06T07:28:13.492Z,50.63
2018-02-06T07:29:13.911Z,50.63
2018-02-06T07:30:14.326Z,50.63
2018-02-06T07:31:14.743Z,50.63
2018-02-06T07:32:15.157Z,56.25
2018-02-06T07:33:15.574Z,56.25
2018-02-06T07:34:15.989Z,56.25
2018-02-06T07:35:16.407Z,56.25
2018-02-06T07:36:16.824Z,56.25
2018-02-06T07:37:17.239Z,56.25
2018-02-06T07:38:17.656Z,61.88
2018-02-06T07:39:18.072Z,61.88
2018-02-06T07:40:18.494Z,61.88
2018-02-06T07:41:18.905Z,61.88
2018-02-06T07:42:19.321Z,61.88
2018-02-06T07:43:19.739Z,61.88
2018-02-06T07:44:20.154Z,67.50
2018-02-06T07:45:20.572Z,67.50
2018-02-06T07:46:20.988Z,67.50
2018-02-06T07:47:21.405Z,67.50
2018-02-06T07:48:21.819Z,67.50
2018-02-06T07:49:22.238Z,67.50
2018-02-06T07:50:22.657Z,67.50
2018-02-06T07:51:23.072Z,73.13
2018-02-06T07:52:23.486Z,73.13
2018-02-06T07:53:23.902Z,73.13
2018-02-06T07:54:24.345Z,73.13
2018-02-06T07:55:24.735Z,73.13
2018-02-06T07:56:25.150Z,78.75
2018-02-06T07:57:25.569Z,78.75
2018-02-06T07:58:25.989Z,78.75
2018-02-06T07:59:26.403Z,78.75
2018-02-06T08:00:26.842Z,78.75
2018-02-06T08:01:27.234Z,84.38
2018-02-06T08:02:27.650Z,84.38
2018-02-06T08:03:28.067Z,84.38
2018-02-06T08:04:28.483Z,84.38
2018-02-06T08:05:28.898Z,84.38
2018-02-06T08:06:29.352Z,90.00
2018-02-06T08:07:29.726Z,90.00
2018-02-06T08:08:30.143Z,90.00
2018-02-06T08:09:30.558Z,90.00
2018-02-06T08:10:30.976Z,90.00
2018-02-06T08:11:31.391Z,95.63
2018-02-06T08:12:31.813Z,95.63
2018-02-06T08:13:32.232Z,95.63
2018-02-06T08:14:32.648Z,95.63
2018-02-06T08:15:33.063Z,101.25
2018-02-06T08:16:33.480Z,101.25
2018-02-06T08:17:33.904Z,101.25
2018-02-06T08:18:34.388Z,101.25
2018-02-06T08:19:34.747Z,101.25
2018-02-06T08:20:35.149Z,101.25
2018-02-06T08:21:35.562Z,101.25
2018-02-06T08:22:35.985Z,101.25
2018-02-06T08:23:36.398Z,106.88
2018-02-06T08:24:36.811Z,106.88
2018-02-06T08:25:37.228Z,106.88
2018-02-06T08:26:37.644Z,106.88
2018-02-06T08:27:38.060Z,106.88
2018-02-06T08:28:38.477Z,106.88
2018-02-06T08:29:38.917Z,106.88
2018-02-06T08:30:39.317Z,106.88
2018-02-06T08:31:39.720Z,106.88
2018-02-06T08:32:40.144Z,112.50
2018-02-06T08:33:40.560Z,112.50
2018-02-06T08:34:40.976Z,112.50
2018-02-06T08:35:41.393Z,112.50
2018-02-06T08:36:41.859Z,112.50
2018-02-06T08:37:42.226Z,118.13
2018-02-06T08:38:42.644Z,118.13
2018-02-06T08:39:43.065Z,118.13
2018-02-06T08:40:43.476Z,118.13
2018-02-06T08:41:43.896Z,118.13
2018-02-06T08:42:44.311Z,118.13
2018-02-06T08:43:44.725Z,123.75
2018-02-06T08:44:45.248Z,123.75
2018-02-06T08:45:45.561Z,123.75
2018-02-06T08:46:45.980Z,123.75
2018-02-06T08:47:46.392Z,129.38
2018-02-06T08:48:46.810Z,129.38
2018-02-06T08:49:47.225Z,129.38
2018-02-06T08:50:47.644Z,135.00
2018-02-06T08:51:48.061Z,135.00
2018-02-06T08:52:48.474Z,135.00
2018-02-06T08:53:48.918Z,135.00
2018-02-06T08:54:49.315Z,140.63
2018-02-06T08:55:49.731Z,140.63
2018-02-06T08:56:50.156Z,140.63
2018-02-06T08:57:50.562Z,140.63
2018-02-06T08:58:50.986Z,140.63
2018-02-06T08:59:51.399Z,140.63
2018-02-06T09:00:51.845Z,140.63
2018-02-06T09:01:52.236Z,140.63
2018-02-06T09:02:52.654Z,146.25
2018-02-06T09:03:53.070Z,146.25
2018-02-06T09:04:53.484Z,151.88
2018-02-06T09:05:53.911Z,151.88
2018-02-06T09:06:54.322Z,157.50
2018-02-06T09:07:54.739Z,163.13
2018-02-06T09:08:55.158Z,168.75
2018-02-06T09:09:55.573Z,168.75
2018-02-06T09:10:55.989Z,174.38
2018-02-06T09:11:56.417Z,180.00
2018-02-06T09:12:56.862Z,185.63
2018-02-06T09:13:57.248Z,191.25
2018-02-06T09:14:57.658Z,208.13
2018-02-06T09:15:58.079Z,213.75
2018-02-06T09:16:58.495Z,230.63
2018-02-06T09:17:58.939Z,247.50
2018-02-06T09:18:59.333Z,253.13
2018-02-06T09:19:59.769Z,258.75
2018-02-06T09:21:00.167Z,264.38
2018-02-06T09:22:00.627Z,270.00
2018-02-06T09:23:01.010Z,281.25
2018-02-06T09:24:01.424Z,298.13
2018-02-06T09:25:01.842Z,309.38
2018-02-06T09:26:02.260Z,309.38
2018-02-06T09:27:02.675Z,315.00
2018-02-06T09:28:03.098Z,320.63
2018-02-06T09:29:03.515Z,320.63
2018-02-06T09:30:03.934Z,320.63
2018-02-06T09:31:04.355Z,320.63
2018-02-06T09:32:04.782Z,320.63
2018-02-06T09:33:05.207Z,326.25
2018-02-06T09:34:05.624Z,326.25
2018-02-06T09:35:06.044Z,326.25
2018-02-06T09:36:06.465Z,331.88
2018-02-06T09:37:06.886Z,326.25
2018-02-06T09:38:07.312Z,326.25
2018-02-06T09:39:07.739Z,326.25
2018-02-06T09:40:08.158Z,331.88
2018-02-06T09:41:08.585Z,326.25
2018-02-06T09:42:09.011Z,326.25
2018-02-06T09:43:09.435Z,326.25
2018-02-06T09:44:09.862Z,326.25
2018-02-06T09:45:10.289Z,326.25
2018-02-06T09:46:10.713Z,326.25
2018-02-06T09:47:11.137Z,326.25
2018-02-06T09:48:11.563Z,320.63
2018-02-06T09:49:11.995Z,326.25
2018-02-06T09:50:12.422Z,326.25
2018-02-06T09:51:12.851Z,326.25
2018-02-06T09:52:13.281Z,326.25
2018-02-06T09:53:13.760Z,326.25
2018-02-06T09:54:14.134Z,326.25
2018-02-06T09:55:14.557Z,326.25
2018-02-06T09:56:14.986Z,326.25
2018-02-06T09:57:15.419Z,326.25
2018-02-06T09:58:15.846Z,326.25
2018-02-06T09:59:16.271Z,320.63
2018-02-06T10:00:17.402Z,326.25
2018-02-06T10:01:17.129Z,320.63
2018-02-06T10:02:17.561Z,326.25
2018-02-06T10:03:17.990Z,326.25
2018-02-06T10:04:18.425Z,326.25
2018-02-06T10:05:18.846Z,326.25
2018-02-06T10:06:19.277Z,331.88
2018-02-06T10:07:19.704Z,326.25
2018-02-06T10:08:20.130Z,331.88
2018-02-06T10:09:20.576Z,331.88
2018-02-06T10:10:20.991Z,331.88
2018-02-06T10:11:21.416Z,326.25
2018-02-06T10:12:21.850Z,326.25
2018-02-06T10:13:22.287Z,331.88
2018-02-06T10:14:29.301Z,331.88
2018-02-06T10:15:23.140Z,331.88
2018-02-06T10:16:25.284Z,326.25
2018-02-06T10:17:48.404Z,326.25
2018-02-06T10:18:26.286Z,326.25
2018-02-06T10:19:24.855Z,331.88
2018-02-06T10:20:25.290Z,331.88
2018-02-06T10:21:25.720Z,331.88
2018-02-06T10:22:26.166Z,331.88
2018-02-06T10:23:26.580Z,331.88
2018-02-06T10:24:28.798Z,337.50
2018-02-06T10:25:27.444Z,331.88
2018-02-06T10:26:27.874Z,331.88
2018-02-06T10:27:28.310Z,331.88
2018-02-06T10:28:28.743Z,331.88
2018-02-06T10:29:29.176Z,331.88
2018-02-06T10:30:29.609Z,326.25
2018-02-06T10:31:30.054Z,326.25
2018-02-06T10:32:30.474Z,326.25
2018-02-06T10:33:30.908Z,326.25
2018-02-06T10:34:31.342Z,331.88
2018-02-06T10:35:31.773Z,331.88
2018-02-06T10:36:32.209Z,326.25
2018-02-06T10:37:35.322Z,331.88
2018-02-06T10:38:33.072Z,326.25
2018-02-06T10:39:33.512Z,331.88
2018-02-06T10:40:33.943Z,331.88
2018-02-06T10:41:34.368Z,331.88
2018-02-06T10:42:34.813Z,320.63
2018-02-06T10:43:35.238Z,320.63
2018-02-06T10:44:35.668Z,320.63
2018-02-06T10:45:36.106Z,320.63
2018-02-06T10:46:36.541Z,326.25
2018-02-06T10:47:38.769Z,326.25
2018-02-06T10:48:37.395Z,320.63
2018-02-06T10:49:37.839Z,320.63
2018-02-06T10:50:38.266Z,326.25
2018-02-06T10:51:38.711Z,298.13
2018-02-06T10:52:39.138Z,320.63
2018-02-06T10:53:39.571Z,326.25
2018-02-06T10:54:40.012Z,326.25
2018-02-06T10:55:40.450Z,331.88
2018-02-06T10:56:40.868Z,326.25
2018-02-06T10:57:41.302Z,326.25
2018-02-06T10:58:41.739Z,219.38
2018-02-06T10:59:42.169Z,163.13
2018-02-06T11:00:42.615Z,326.25
2018-02-06T11:01:45.819Z,275.63
2018-02-06T11:02:43.473Z,208.13
2018-02-06T11:03:43.900Z,320.63
2018-02-06T11:04:44.326Z,326.25
2018-02-06T11:05:44.770Z,326.25
2018-02-06T11:06:45.200Z,185.63
2018-02-06T11:07:45.627Z,146.25
2018-02-06T11:08:46.061Z,146.25
2018-02-06T11:09:46.486Z,225.00
2018-02-06T11:10:46.921Z,230.63
2018-02-06T11:11:47.345Z,163.13
2018-02-06T11:12:47.801Z,157.50
2018-02-06T11:13:48.203Z,180.00
2018-02-06T11:14:48.633Z,151.88
2018-02-06T11:15:49.063Z,157.50
2018-02-06T11:16:49.487Z,151.88
2018-02-06T11:17:49.912Z,230.63
2018-02-06T11:18:50.345Z,331.88
2018-02-06T11:19:50.786Z,343.13
2018-02-06T11:22:24.363Z,230.63
2018-02-06T11:23:24.758Z,326.25
2018-02-06T11:24:25.180Z,168.75
2018-02-06T11:25:25.615Z,151.88
2018-02-06T11:26:26.081Z,140.63
2018-02-06T11:27:26.458Z,151.88
2018-02-06T11:28:26.883Z,337.50
2018-02-06T11:29:27.311Z,360.00
2018-02-06T11:30:27.730Z,337.50
2018-02-06T11:31:28.154Z,157.50
2018-02-06T11:32:28.606Z,157.50
2018-02-06T11:33:29.004Z,146.25
2018-02-06T11:34:29.428Z,135.00
2018-02-06T11:35:29.855Z,140.63
2018-02-06T11:36:30.276Z,360.00
2018-02-06T11:37:30.732Z,180.00
2018-02-06T11:38:31.126Z,343.13
2018-02-06T11:39:31.551Z,354.38
2018-02-06T11:40:31.970Z,270.00
2018-02-06T11:41:32.397Z,838.13
2018-02-06T11:42:32.828Z,360.00
2018-02-06T11:43:33.243Z,1023.75
2018-02-06T11:44:33.667Z,855.00
2018-02-06T11:45:34.111Z,1130.63
2018-02-06T11:46:34.522Z,1141.88
2018-02-06T11:47:34.937Z,1153.13
2018-02-06T11:48:35.364Z,1096.88
2018-02-06T11:49:35.786Z,1147.50
2018-02-06T11:50:36.211Z,871.88
2018-02-06T11:51:36.647Z,438.75
2018-02-06T11:52:37.060Z,697.50
2018-02-06T11:53:37.485Z,1153.13
2018-02-06T11:54:37.913Z,1198.13
2018-02-06T11:55:38.341Z,1220.63
2018-02-06T11:56:38.765Z,1203.75
2018-02-06T11:57:39.191Z,1158.75
2018-02-06T11:58:39.619Z,956.25
2018-02-06T11:59:40.047Z,478.13
2018-02-06T12:00:40.473Z,213.75
2018-02-06T12:01:40.901Z,281.25
2018-02-06T12:02:41.324Z,292.50
2018-02-06T12:03:41.755Z,185.63
2018-02-06T12:04:42.180Z,157.50
2018-02-06T12:05:42.605Z,151.88
2018-02-06T12:06:43.028Z,146.25
2018-02-06T12:07:43.454Z,146.25
2018-02-06T12:08:43.882Z,140.63
2018-02-06T12:09:44.310Z,151.88
2018-02-06T12:10:44.740Z,146.25
2018-02-06T12:11:45.176Z,151.88
2018-02-06T12:12:45.574Z,151.88
2018-02-06T12:13:45.997Z,151.88
2018-02-06T12:14:46.432Z,140.63
2018-02-06T12:15:46.842Z,140.63
2018-02-06T12:16:47.269Z,151.88
2018-02-06T12:17:47.691Z,140.63
2018-02-06T12:18:48.112Z,140.63
2018-02-06T12:19:48.535Z,140.63
2018-02-06T12:20:48.954Z,146.25
2018-02-06T12:21:49.379Z,151.88
2018-02-06T12:22:49.825Z,146.25
2018-02-06T12:23:50.228Z,163.13
2018-02-06T12:24:50.641Z,168.75
2018-02-06T12:25:51.057Z,151.88
2018-02-06T12:26:51.483Z,146.25
2018-02-06T12:27:51.902Z,135.00
2018-02-06T12:28:52.323Z,135.00
2018-02-06T12:29:52.750Z,140.63
2018-02-06T12:30:53.169Z,151.88
2018-02-06T12:31:53.588Z,140.63
2018-02-06T12:32:54.012Z,140.63
2018-02-06T12:33:54.432Z,146.25
2018-02-06T12:34:54.851Z,146.25
2018-02-06T12:35:55.270Z,135.00
2018-02-06T12:36:55.690Z,135.00
2018-02-06T12:37:56.118Z,129.38
2018-02-06T12:38:56.540Z,135.00
2018-02-06T12:39:56.951Z,129.38
2018-02-06T12:40:57.373Z,129.38
2018-02-06T12:41:57.792Z,129.38
2018-02-06T12:42:58.209Z,129.38
2018-02-06T12:43:58.633Z,129.38
2018-02-06T12:44:59.051Z,129.38
2018-02-06T12:45:59.469Z,123.75
2018-02-06T12:46:59.915Z,129.38
2018-02-06T12:48:00.318Z,129.38
2018-02-06T12:49:00.734Z,129.38
2018-02-06T12:50:01.149Z,123.75
2018-02-06T12:51:01.570Z,123.75
2018-02-06T12:52:01.987Z,123.75
2018-02-06T12:53:02.410Z,123.75
2018-02-06T12:54:02.828Z,123.75
2018-02-06T12:55:03.248Z,123.75
2018-02-06T12:56:03.665Z,123.75
2018-02-06T12:57:04.087Z,123.75
2018-02-06T12:58:04.515Z,123.75
2018-02-06T12:59:04.936Z,123.75
2018-02-06T13:00:05.372Z,123.75
2018-02-06T13:01:05.773Z,123.75
2018-02-06T13:02:06.217Z,123.75
2018-02-06T13:03:06.622Z,123.75
2018-02-06T13:04:07.021Z,123.75
2018-02-06T13:05:07.445Z,123.75
2018-02-06T13:06:07.864Z,123.75
2018-02-06T13:07:08.315Z,118.13
2018-02-06T13:08:08.748Z,118.13
2018-02-06T13:09:09.121Z,118.13
2018-02-06T13:10:09.542Z,118.13
2018-02-06T13:11:09.963Z,118.13
2018-02-06T13:12:10.448Z,118.13
2018-02-06T13:13:10.805Z,118.13
2018-02-06T13:14:11.225Z,118.13
2018-02-06T13:15:11.638Z,118.13
2018-02-06T13:16:12.061Z,118.13
2018-02-06T13:17:12.474Z,118.13
2018-02-06T13:18:12.893Z,123.75
2018-02-06T13:19:13.314Z,118.13
2018-02-06T13:20:13.742Z,118.13
2018-02-06T13:21:14.159Z,118.13
2018-02-06T13:22:14.575Z,118.13
2018-02-06T13:23:14.992Z,118.13
2018-02-06T13:24:15.413Z,118.13
2018-02-06T13:25:15.843Z,118.13
2018-02-06T13:26:16.260Z,118.13
2018-02-06T13:27:16.680Z,118.13
2018-02-06T13:28:17.090Z,118.13
2018-02-06T13:29:17.512Z,112.50
2018-02-06T13:30:17.928Z,112.50
2018-02-06T13:31:18.376Z,112.50
2018-02-06T13:32:18.792Z,112.50
2018-02-06T13:33:19.211Z,112.50
2018-02-06T13:34:19.608Z,112.50
2018-02-06T13:35:20.028Z,112.50
2018-02-06T13:36:20.445Z,112.50
2018-02-06T13:37:20.867Z,112.50
2018-02-06T13:38:21.285Z,112.50
2018-02-06T13:39:21.708Z,112.50
2018-02-06T13:40:22.126Z,112.50
2018-02-06T13:41:22.543Z,112.50
2018-02-06T13:42:22.965Z,112.50
2018-02-06T13:43:23.383Z,112.50
2018-02-06T13:44:23.809Z,106.88
2018-02-06T13:45:24.221Z,106.88
2018-02-06T13:46:24.638Z,106.88
2018-02-06T13:47:25.062Z,106.88
2018-02-06T13:48:25.484Z,106.88
2018-02-06T13:49:25.899Z,106.88
2018-02-06T13:50:26.318Z,106.88
2018-02-06T13:51:26.742Z,106.88
2018-02-06T13:52:27.162Z,106.88
2018-02-06T13:53:27.579Z,101.25
2018-02-06T13:54:27.996Z,101.25
2018-02-06T13:55:28.422Z,101.25
2018-02-06T13:56:28.838Z,101.25
2018-02-06T13:57:29.257Z,101.25
2018-02-06T13:58:29.686Z,101.25
2018-02-06T13:59:30.095Z,101.25
2018-02-06T14:00:30.519Z,101.25
2018-02-06T14:01:30.942Z,101.25
2018-02-06T14:02:31.354Z,95.63
2018-02-06T14:03:31.775Z,95.63
2018-02-06T14:04:32.193Z,95.63
2018-02-06T14:05:32.614Z,95.63
2018-02-06T14:06:33.033Z,95.63
2018-02-06T14:07:33.461Z,95.63
2018-02-06T14:08:33.872Z,95.63
2018-02-06T14:09:34.296Z,95.63
2018-02-06T14:10:34.708Z,90.00
2018-02-06T14:11:35.188Z,90.00
2018-02-06T14:12:35.549Z,90.00
2018-02-06T14:13:35.977Z,90.00
2018-02-06T14:14:36.386Z,90.00
2018-02-06T14:15:36.813Z,90.00
2018-02-06T14:16:37.226Z,84.38
2018-02-06T14:17:37.647Z,90.00
2018-02-06T14:18:38.072Z,90.00
2018-02-06T14:19:38.486Z,90.00
2018-02-06T14:20:38.903Z,90.00
2018-02-06T14:21:39.330Z,90.00
2018-02-06T14:22:39.855Z,84.38
2018-02-06T14:23:40.164Z,84.38
2018-02-06T14:24:40.582Z,84.38
2018-02-06T14:25:41.004Z,84.38
2018-02-06T14:26:41.427Z,84.38
2018-02-06T14:27:41.839Z,84.38
2018-02-06T14:28:42.257Z,84.38
2018-02-06T14:29:42.678Z,78.75
2018-02-06T14:30:43.101Z,78.75
2018-02-06T14:31:43.517Z,78.75
2018-02-06T14:32:43.940Z,78.75
2018-02-06T14:33:44.364Z,78.75
2018-02-06T14:34:44.773Z,78.75
2018-02-06T14:35:45.209Z,78.75
2018-02-06T14:36:45.615Z,73.13
2018-02-06T14:37:46.049Z,73.13
2018-02-06T14:38:46.449Z,73.13
2018-02-06T14:39:46.868Z,73.13
2018-02-06T14:40:47.285Z,73.13
2018-02-06T14:41:47.714Z,73.13
2018-02-06T14:42:48.145Z,73.13
2018-02-06T14:43:48.556Z,67.50
2018-02-06T14:44:48.968Z,67.50
2018-02-06T14:45:49.385Z,67.50
2018-02-06T14:46:49.822Z,67.50
2018-02-06T14:47:50.221Z,67.50
2018-02-06T14:48:50.640Z,61.88
2018-02-06T14:49:51.060Z,61.88
2018-02-06T14:50:51.480Z,61.88
2018-02-06T14:51:51.898Z,61.88
2018-02-06T14:52:52.319Z,61.88
2018-02-06T14:53:52.738Z,56.25